createdAt,value
2022-11-10T00:02:38.774Z,56.60
2022-11-10T00:06:04.774Z,42.30
2022-11-10T00:09:26.287Z,41.30
2022-11-10T00:12:47.143Z,40.88
2022-11-10T00:16:28.450Z,43.63
2022-11-10T00:19:50.620Z,45.63
2022-11-10T00:23:11.963Z,46.47
2022-11-10T00:26:32.915Z,43.78
2022-11-10T00:29:54.751Z,47.15
2022-11-10T00:33:15.776Z,52.13
2022-11-10T00:36:36.421Z,47.45
2022-11-10T00:39:57.740Z,46.65
2022-11-10T00:43:22.523Z,51.10
2022-11-10T00:46:47.302Z,49.53
2022-11-10T00:50:08.518Z,50.27
2022-11-10T00:53:29.544Z,51.63
2022-11-10T00:56:50.281Z,51.17
2022-11-10T01:00:11.959Z,50.38
2022-11-10T01:03:33.161Z,54.05
2022-11-10T01:06:53.920Z,52.83
2022-11-10T01:10:15.255Z,48.40
2022-11-10T01:13:36.804Z,57.50
2022-11-10T01:16:58.832Z,75.70
2022-11-10T01:20:20.012Z,68.68
2022-11-10T01:23:40.923Z,57.13
2022-11-10T01:27:01.936Z,61.95
2022-11-10T01:30:23.149Z,62.03
2022-11-10T01:33:43.785Z,63.45
2022-11-10T01:37:05.710Z,62.15
2022-11-10T01:40:27.269Z,61.43
2022-11-10T01:43:51.473Z,61.20
2022-11-10T01:47:12.107Z,55.03
2022-11-10T01:50:35.975Z,61.95
2022-11-10T01:54:02.247Z,57.10
2022-11-10T01:57:23.087Z,52.30
2022-11-10T02:00:44.793Z,55.88
2022-11-10T02:04:08.744Z,52.70
2022-11-10T02:07:29.544Z,49.38
2022-11-10T02:10:50.504Z,50.30
2022-11-10T02:14:12.565Z,52.97
2022-11-10T02:17:34.509Z,51.50
2022-11-10T02:20:55.341Z,54.75
2022-11-10T02:24:17.138Z,52.08
2022-11-10T02:27:38.574Z,51.95
2022-11-10T02:30:59.313Z,49.53
2022-11-10T02:34:19.919Z,53.22
2022-11-10T02:37:40.632Z,52.42
2022-11-10T02:41:01.403Z,48.22
2022-11-10T02:44:23.308Z,46.43
2022-11-10T02:47:44.499Z,48.50
2022-11-10T02:51:05.369Z,51.88
2022-11-10T02:54:25.993Z,52.80
2022-11-10T02:57:46.745Z,58.72
2022-11-10T03:01:07.576Z,54.85
2022-11-10T03:04:28.543Z,53.10
2022-11-10T03:07:56.484Z,54.63
2022-11-10T03:11:16.980Z,57.08
2022-11-10T03:14:37.951Z,58.70
2022-11-10T03:18:04.638Z,56.58
2022-11-10T03:21:25.842Z,50.80
2022-11-10T03:24:46.834Z,55.70
2022-11-10T03:28:07.595Z,53.63
2022-11-10T03:31:28.374Z,54.65
2022-11-10T03:34:49.136Z,56.17
2022-11-10T03:38:10.819Z,55.50
2022-11-10T03:41:31.877Z,57.63
2022-11-10T03:44:52.529Z,51.22
2022-11-10T03:48:20.250Z,54.88
2022-11-10T03:51:40.968Z,54.88
2022-11-10T03:55:03.448Z,50.50
2022-11-10T03:58:25.448Z,48.33
2022-11-10T04:01:47.119Z,47.88
2022-11-10T04:05:27.668Z,45.30
2022-11-10T04:09:01.052Z,50.58
2022-11-10T04:12:40.320Z,49.00
2022-11-10T04:16:01.755Z,47.03
2022-11-10T04:19:22.614Z,47.03
2022-11-10T04:23:01.690Z,46.03
2022-11-10T04:26:28.561Z,50.63
2022-11-10T04:29:49.660Z,47.27
2022-11-10T04:33:10.438Z,51.25
2022-11-10T04:36:33.366Z,47.85
2022-11-10T04:39:54.267Z,50.33
2022-11-10T04:43:15.004Z,45.40
2022-11-10T04:46:38.288Z,50.40
2022-11-10T04:49:59.182Z,45.33
2022-11-10T04:53:20.881Z,45.15
2022-11-10T04:56:42.290Z,47.00
2022-11-10T05:00:04.848Z,63.45
2022-11-10T05:03:26.613Z,57.13
2022-11-10T05:06:47.367Z,48.33
2022-11-10T05:10:08.728Z,51.85
2022-11-10T05:13:31.221Z,59.75
2022-11-10T05:16:52.551Z,50.92
2022-11-10T05:20:13.637Z,48.43
2022-11-10T05:23:41.932Z,56.92
2022-11-10T05:27:03.213Z,43.47
2022-11-10T05:30:24.714Z,43.45
2022-11-10T05:33:45.576Z,49.08
2022-11-10T05:37:06.286Z,47.73
2022-11-10T05:40:28.013Z,43.47
2022-11-10T05:43:49.538Z,47.58
2022-11-10T05:47:10.278Z,46.65
2022-11-10T05:50:30.978Z,45.65
2022-11-10T05:53:51.610Z,47.50
2022-11-10T05:57:12.218Z,47.95
2022-11-10T06:00:33.533Z,59.95
2022-11-10T06:03:54.443Z,58.40
2022-11-10T06:07:15.406Z,47.17
2022-11-10T06:10:37.686Z,45.10
2022-11-10T06:14:00.869Z,40.95
2022-11-10T06:17:21.953Z,43.33
2022-11-10T06:20:43.004Z,46.80
2022-11-10T06:24:03.992Z,45.03
2022-11-10T06:27:24.881Z,41.57
2022-11-10T06:30:45.670Z,38.38
2022-11-10T06:34:06.736Z,39.20
2022-11-10T06:37:27.940Z,43.97
2022-11-10T06:40:49.078Z,50.47
2022-11-10T06:44:11.977Z,48.00
2022-11-10T06:47:32.769Z,40.15
2022-11-10T06:50:53.456Z,46.28
2022-11-10T06:54:14.337Z,40.95
2022-11-10T06:57:39.222Z,40.05
2022-11-10T07:01:01.373Z,36.57
2022-11-10T07:04:23.028Z,40.25
2022-11-10T07:07:45.146Z,39.00
2022-11-10T07:11:07.835Z,37.83
2022-11-10T07:14:30.094Z,37.53
2022-11-10T07:17:52.230Z,37.97
2022-11-10T07:21:13.679Z,38.72
2022-11-10T07:24:34.866Z,35.17
2022-11-10T07:28:00.481Z,39.50
2022-11-10T07:31:21.798Z,41.53
2022-11-10T07:34:42.645Z,40.27
2022-11-10T07:38:06.320Z,45.78
2022-11-10T07:41:27.367Z,43.05
2022-11-10T07:44:48.613Z,44.60
2022-11-10T07:48:09.634Z,49.05
2022-11-10T07:51:31.373Z,45.13
2022-11-10T07:54:52.182Z,42.17
2022-11-10T07:58:14.916Z,46.60
2022-11-10T08:01:36.048Z,41.60
2022-11-10T08:04:57.178Z,46.53
2022-11-10T08:08:20.590Z,45.27
2022-11-10T08:11:42.267Z,44.60
2022-11-10T08:15:04.087Z,137.70
2022-11-10T08:18:25.685Z,59.55
2022-11-10T08:21:48.879Z,42.65
2022-11-10T08:25:10.225Z,42.90
2022-11-10T08:28:30.985Z,45.28
2022-11-10T08:31:53.155Z,41.92
2022-11-10T08:35:14.241Z,44.47
2022-11-10T08:38:35.499Z,51.38
2022-11-10T08:41:56.465Z,46.30
2022-11-10T08:45:17.500Z,49.88
2022-11-10T08:48:39.209Z,58.58
2022-11-10T08:52:00.218Z,46.63
2022-11-10T08:55:21.948Z,48.17
2022-11-10T08:58:52.957Z,50.33
2022-11-10T09:02:14.295Z,52.78
2022-11-10T09:05:36.234Z,54.22
2022-11-10T09:08:57.548Z,53.17
2022-11-10T09:12:18.674Z,54.63
2022-11-10T09:15:41.594Z,68.40
2022-11-10T09:19:02.714Z,67.00
2022-11-10T09:22:24.031Z,61.25
2022-11-10T09:25:50.344Z,59.03
2022-11-10T09:29:11.104Z,49.83
2022-11-10T09:32:32.653Z,57.87
2022-11-10T09:35:58.738Z,58.38
2022-11-10T09:39:19.837Z,56.15
2022-11-10T09:42:41.680Z,71.15
2022-11-10T09:46:09.065Z,71.20
2022-11-10T09:49:36.943Z,73.77
2022-11-10T09:52:59.173Z,68.05
2022-11-10T09:56:26.321Z,69.55
2022-11-10T09:59:48.077Z,76.57
2022-11-10T10:03:13.081Z,82.93
2022-11-10T10:07:09.502Z,80.63
2022-11-10T10:10:50.011Z,84.07
2022-11-10T10:14:29.711Z,71.68
2022-11-10T10:18:31.959Z,62.42
2022-11-10T10:22:08.684Z,70.70
2022-11-10T10:25:31.765Z,72.93
2022-11-10T10:28:55.350Z,72.10
2022-11-10T10:32:17.167Z,66.97
2022-11-10T10:35:41.800Z,72.72
2022-11-10T10:39:08.628Z,74.10
2022-11-10T10:42:34.758Z,67.57
2022-11-10T10:46:07.665Z,71.50
2022-11-10T10:49:31.159Z,81.20
2022-11-10T10:53:17.863Z,83.75
2022-11-10T10:56:38.792Z,71.43
2022-11-10T11:00:18.106Z,73.53
2022-11-10T11:03:50.345Z,68.82
2022-11-10T11:07:33.850Z,76.43
2022-11-10T11:11:10.554Z,64.55
2022-11-10T11:14:32.691Z,57.85
2022-11-10T11:17:59.144Z,64.80
2022-11-10T11:21:43.524Z,67.13
2022-11-10T11:25:19.274Z,54.80
2022-11-10T11:29:17.722Z,57.97
2022-11-10T11:32:49.609Z,72.57
2022-11-10T11:36:17.225Z,66.53
2022-11-10T11:40:12.700Z,65.30
2022-11-10T11:43:39.240Z,70.57
2022-11-10T11:47:18.473Z,62.88
2022-11-10T11:50:43.904Z,59.20
2022-11-10T11:54:23.644Z,58.50
2022-11-10T11:58:07.116Z,64.55
2022-11-10T12:01:43.647Z,57.22
2022-11-10T12:05:10.570Z,59.35
2022-11-10T12:09:03.959Z,62.15
2022-11-10T12:13:09.937Z,60.70
2022-11-10T12:16:33.380Z,59.72
2022-11-10T12:20:14.925Z,59.10
2022-11-10T12:23:41.528Z,56.83
2022-11-10T12:27:13.859Z,56.90
2022-11-10T12:30:35.842Z,57.03
2022-11-10T12:34:01.716Z,57.63
2022-11-10T12:37:29.009Z,68.63
2022-11-10T12:40:54.291Z,72.03
2022-11-10T12:44:27.333Z,67.70
2022-11-10T12:47:49.754Z,66.67
2022-11-10T12:51:14.368Z,69.80
2022-11-10T12:54:36.058Z,72.40
2022-11-10T12:57:56.738Z,62.20
2022-11-10T13:01:19.838Z,66.57
2022-11-10T13:04:41.095Z,70.73
2022-11-10T13:08:14.912Z,66.35
2022-11-10T13:11:36.906Z,67.30
2022-11-10T13:14:57.852Z,67.78
2022-11-10T13:18:31.572Z,68.30
2022-11-10T13:21:52.457Z,69.77
2022-11-10T13:25:35.409Z,70.88
2022-11-10T13:28:58.743Z,66.78
2022-11-10T13:32:26.970Z,91.47
2022-11-10T13:35:58.152Z,81.70
2022-11-10T13:39:19.084Z,72.60
2022-11-10T13:42:46.037Z,69.22
2022-11-10T13:46:08.484Z,70.35
2022-11-10T13:50:00.366Z,69.05
2022-11-10T13:53:28.259Z,64.13
2022-11-10T13:56:58.553Z,64.17
2022-11-10T14:00:19.461Z,64.10
2022-11-10T14:03:46.238Z,76.03
2022-11-10T14:07:18.658Z,69.18
2022-11-10T14:10:40.568Z,74.85
2022-11-10T14:14:29.454Z,104.43
2022-11-10T14:17:52.233Z,87.80
2022-11-10T14:21:22.561Z,121.18
2022-11-10T14:25:20.429Z,100.20
2022-11-10T14:28:41.304Z,102.00
2022-11-10T14:32:04.772Z,156.60
2022-11-10T14:35:31.295Z,158.15
2022-11-10T14:38:53.148Z,105.93
2022-11-10T14:42:20.242Z,117.20
2022-11-10T14:45:50.463Z,113.13
2022-11-10T14:49:11.304Z,113.50
2022-11-10T14:52:32.133Z,123.10
2022-11-10T14:55:54.867Z,139.90
2022-11-10T14:59:17.126Z,86.03
2022-11-10T15:02:40.203Z,69.67
2022-11-10T15:06:03.127Z,82.00
2022-11-10T15:09:30.714Z,114.07
2022-11-10T15:13:02.260Z,95.80
2022-11-10T15:16:27.907Z,70.50
2022-11-10T15:19:49.127Z,73.15
2022-11-10T15:23:33.111Z,65.43
2022-11-10T15:26:54.468Z,102.22
2022-11-10T15:30:23.461Z,101.05
2022-11-10T15:33:50.346Z,86.65
2022-11-10T15:37:11.338Z,83.65
2022-11-10T15:40:45.284Z,90.23
2022-11-10T15:44:17.957Z,85.43
2022-11-10T15:47:38.671Z,79.25
2022-11-10T15:50:59.481Z,82.30
2022-11-10T15:54:22.428Z,84.85
2022-11-10T15:57:43.194Z,64.03
2022-11-10T16:01:04.404Z,81.70
2022-11-10T16:04:27.821Z,75.80
2022-11-10T16:07:48.779Z,76.65
2022-11-10T16:11:13.768Z,75.13
2022-11-10T16:14:34.390Z,65.27
2022-11-10T16:17:55.433Z,66.22
2022-11-10T16:21:21.457Z,84.15
2022-11-10T16:24:42.448Z,85.40
2022-11-10T16:28:05.863Z,94.85
2022-11-10T16:31:27.731Z,83.73
2022-11-10T16:34:48.411Z,76.35
2022-11-10T16:38:19.287Z,76.57
2022-11-10T16:41:41.367Z,103.80
2022-11-10T16:45:02.319Z,115.57
2022-11-10T16:48:26.697Z,102.00
2022-11-10T16:51:48.965Z,119.60
2022-11-10T16:55:13.793Z,138.55
2022-11-10T16:58:34.565Z,141.38
2022-11-10T17:01:55.586Z,139.13
2022-11-10T17:05:17.318Z,189.07
2022-11-10T17:08:38.425Z,216.82
2022-11-10T17:11:59.388Z,384.42
2022-11-10T17:15:20.526Z,176.15
2022-11-10T17:18:41.739Z,142.40
2022-11-10T17:22:03.032Z,147.00
2022-11-10T17:25:26.953Z,100.22
2022-11-10T17:28:47.761Z,81.13
2022-11-10T17:32:08.403Z,76.97
2022-11-10T17:35:29.612Z,70.30
2022-11-10T17:38:51.414Z,66.00
2022-11-10T17:42:13.542Z,62.55
2022-11-10T17:45:35.663Z,67.88
2022-11-10T17:49:02.567Z,63.95
2022-11-10T17:52:24.103Z,71.35
2022-11-10T17:55:45.001Z,62.40
2022-11-10T17:59:05.955Z,66.93
2022-11-10T18:02:26.718Z,73.30
2022-11-10T18:05:48.830Z,96.90
2022-11-10T18:09:10.108Z,109.45
2022-11-10T18:12:30.952Z,96.17
2022-11-10T18:15:54.356Z,102.43
2022-11-10T18:19:15.454Z,110.07
2022-11-10T18:22:36.479Z,138.23
2022-11-10T18:26:06.942Z,126.85
2022-11-10T18:29:27.785Z,115.50
2022-11-10T18:32:48.930Z,116.90
2022-11-10T18:36:10.059Z,114.40
2022-11-10T18:39:31.418Z,105.00
2022-11-10T18:43:07.144Z,102.57
2022-11-10T18:46:28.814Z,103.37
2022-11-10T18:49:51.378Z,141.63
2022-11-10T18:53:12.396Z,144.13
2022-11-10T18:56:33.543Z,141.65
2022-11-10T18:59:54.607Z,138.10
2022-11-10T19:03:15.863Z,134.70
2022-11-10T19:06:37.003Z,123.70
2022-11-10T19:09:58.279Z,169.98
2022-11-10T19:13:19.293Z,156.07
2022-11-10T19:16:40.236Z,140.68
2022-11-10T19:20:02.853Z,132.57
2022-11-10T19:23:24.117Z,145.38
2022-11-10T19:26:45.211Z,138.75
2022-11-10T19:30:06.686Z,131.38
2022-11-10T19:33:29.645Z,140.80
2022-11-10T19:36:50.637Z,137.67
2022-11-10T19:40:11.784Z,134.68
2022-11-10T19:43:32.979Z,139.52
2022-11-10T19:46:54.257Z,142.80
2022-11-10T19:50:15.883Z,151.38
2022-11-10T19:53:36.908Z,126.03
2022-11-10T19:56:57.930Z,125.03
2022-11-10T20:00:19.510Z,110.57
2022-11-10T20:03:41.888Z,126.50
2022-11-10T20:07:21.525Z,105.10
2022-11-10T20:10:43.998Z,103.00
2022-11-10T20:14:06.866Z,123.82
2022-11-10T20:17:27.795Z,119.43
2022-11-10T20:20:48.989Z,120.78
2022-11-10T20:24:10.096Z,110.50
2022-11-10T20:27:30.972Z,105.63
2022-11-10T20:30:55.401Z,104.25
2022-11-10T20:34:16.702Z,97.45
2022-11-10T20:37:37.687Z,99.78
2022-11-10T20:41:06.203Z,96.47
2022-11-10T20:44:27.468Z,91.23
2022-11-10T20:47:48.882Z,164.82
2022-11-10T20:51:12.685Z,245.13
2022-11-10T20:54:33.838Z,172.45
2022-11-10T20:57:54.550Z,282.73
2022-11-10T21:01:16.171Z,224.53
2022-11-10T21:04:42.731Z,179.07
2022-11-10T21:08:03.991Z,147.77
2022-11-10T21:11:43.506Z,179.27
2022-11-10T21:15:04.956Z,167.25
2022-11-10T21:18:34.087Z,170.33
2022-11-10T21:21:55.111Z,180.27
2022-11-10T21:25:16.894Z,149.80
2022-11-10T21:28:37.804Z,132.77
2022-11-10T21:31:58.524Z,118.55
2022-11-10T21:35:19.836Z,110.10
2022-11-10T21:38:42.310Z,109.85
2022-11-10T21:42:03.695Z,88.68
2022-11-10T21:45:24.744Z,88.15
2022-11-10T21:48:45.639Z,101.20
2022-11-10T21:52:06.423Z,82.53
2022-11-10T21:55:27.153Z,104.88
2022-11-10T21:58:47.661Z,93.75
2022-11-10T22:02:10.086Z,73.20
2022-11-10T22:05:30.862Z,73.30
2022-11-10T22:08:51.614Z,81.03
2022-11-10T22:12:32.180Z,84.75
2022-11-10T22:16:11.778Z,89.88
2022-11-10T22:19:34.069Z,88.85
2022-11-10T22:22:55.034Z,80.75
2022-11-10T22:26:16.291Z,93.33
2022-11-10T22:29:37.268Z,89.43
2022-11-10T22:33:18.170Z,86.53
2022-11-10T22:36:39.272Z,70.03
2022-11-10T22:40:18.868Z,70.63
2022-11-10T22:43:58.199Z,59.17
2022-11-10T22:47:19.272Z,68.20
2022-11-10T22:50:40.731Z,67.75
2022-11-10T22:54:02.248Z,65.35
2022-11-10T22:57:22.890Z,64.07
2022-11-10T23:00:43.978Z,61.67
2022-11-10T23:04:04.827Z,63.90
2022-11-10T23:07:25.773Z,63.30
2022-11-10T23:10:47.013Z,68.80
2022-11-10T23:14:09.564Z,75.60
2022-11-10T23:17:30.271Z,69.27
2022-11-10T23:21:01.606Z,58.95
2022-11-10T23:24:24.579Z,49.50
2022-11-10T23:27:45.402Z,43.50
2022-11-10T23:31:15.018Z,49.90
2022-11-10T23:34:35.773Z,47.33
2022-11-10T23:37:59.520Z,60.83
2022-11-10T23:41:25.945Z,57.03
2022-11-10T23:44:46.955Z,66.10
2022-11-10T23:48:07.692Z,66.50
2022-11-10T23:51:28.319Z,71.37
2022-11-10T23:54:49.328Z,62.15
2022-11-10T23:58:10.243Z,66.60
